sensor_id;sensor_type;location;lat;lon;timestamp;P1;durP1;ratioP1;P2;durP2;ratioP2
31206;SDS011;17834;52.992;8.856;2024-02-16T00:00:26;8.35;;;3.25;;
31206;SDS011;17834;52.992;8.856;2024-02-16T00:02:52;6.22;;;2.88;;
31206;SDS011;17834;52.992;8.856;2024-02-16T00:05:18;6.68;;;2.45;;
31206;SDS011;17834;52.992;8.856;2024-02-16T00:07:44;4.85;;;2.70;;
31206;SDS011;17834;52.992;8.856;2024-02-16T00:10:10;4.03;;;2.53;;
31206;SDS011;17834;52.992;8.856;2024-02-16T00:12:39;10.45;;;3.60;;
31206;SDS011;17834;52.992;8.856;2024-02-16T00:15:07;7.80;;;3.30;;
31206;SDS011;17834;52.992;8.856;2024-02-16T00:17:33;8.25;;;3.00;;
31206;SDS011;17834;52.992;8.856;2024-02-16T00:19:59;7.60;;;3.20;;
31206;SDS011;17834;52.992;8.856;2024-02-16T00:22:25;7.22;;;3.75;;
31206;SDS011;17834;52.992;8.856;2024-02-16T00:24:51;6.82;;;3.00;;
31206;SDS011;17834;52.992;8.856;2024-02-16T00:27:17;5.07;;;2.78;;
31206;SDS011;17834;52.992;8.856;2024-02-16T00:29:44;6.65;;;3.28;;
31206;SDS011;17834;52.992;8.856;2024-02-16T00:32:13;7.50;;;3.00;;
31206;SDS011;17834;52.992;8.856;2024-02-16T00:34:40;5.57;;;3.00;;
31206;SDS011;17834;52.992;8.856;2024-02-16T00:37:06;4.95;;;2.88;;
31206;SDS011;17834;52.992;8.856;2024-02-16T00:39:37;7.10;;;3.25;;
31206;SDS011;17834;52.992;8.856;2024-02-16T00:42:05;7.15;;;3.20;;
31206;SDS011;17834;52.992;8.856;2024-02-16T00:44:31;4.45;;;3.00;;
31206;SDS011;17834;52.992;8.856;2024-02-16T00:46:57;4.68;;;2.90;;
31206;SDS011;17834;52.992;8.856;2024-02-16T00:49:23;5.85;;;2.58;;
31206;SDS011;17834;52.992;8.856;2024-02-16T00:51:49;8.75;;;3.20;;
31206;SDS011;17834;52.992;8.856;2024-02-16T00:54:15;7.15;;;3.10;;
31206;SDS011;17834;52.992;8.856;2024-02-16T00:56:42;9.05;;;3.25;;
31206;SDS011;17834;52.992;8.856;2024-02-16T00:59:08;7.30;;;2.90;;
31206;SDS011;17834;52.992;8.856;2024-02-16T01:01:35;5.53;;;2.40;;
31206;SDS011;17834;52.992;8.856;2024-02-16T01:04:01;8.95;;;2.83;;
31206;SDS011;17834;52.992;8.856;2024-02-16T01:06:27;7.22;;;3.67;;
31206;SDS011;17834;52.992;8.856;2024-02-16T01:08:53;7.15;;;2.85;;
31206;SDS011;17834;52.992;8.856;2024-02-16T01:11:20;5.70;;;3.17;;
31206;SDS011;17834;52.992;8.856;2024-02-16T01:13:46;6.75;;;2.90;;
31206;SDS011;17834;52.992;8.856;2024-02-16T01:16:12;5.22;;;2.58;;
31206;SDS011;17834;52.992;8.856;2024-02-16T01:18:39;5.15;;;2.75;;
31206;SDS011;17834;52.992;8.856;2024-02-16T01:21:05;4.45;;;2.50;;
31206;SDS011;17834;52.992;8.856;2024-02-16T01:23:31;5.93;;;2.95;;
31206;SDS011;17834;52.992;8.856;2024-02-16T01:25:57;3.97;;;2.28;;
31206;SDS011;17834;52.992;8.856;2024-02-16T01:28:24;5.03;;;2.35;;
31206;SDS011;17834;52.992;8.856;2024-02-16T01:30:50;6.18;;;3.63;;
31206;SDS011;17834;52.992;8.856;2024-02-16T01:33:16;5.95;;;2.67;;
31206;SDS011;17834;52.992;8.856;2024-02-16T01:35:42;4.75;;;2.67;;
31206;SDS011;17834;52.992;8.856;2024-02-16T01:38:08;4.93;;;2.60;;
31206;SDS011;17834;52.992;8.856;2024-02-16T01:40:34;4.80;;;2.72;;
31206;SDS011;17834;52.992;8.856;2024-02-16T01:43:00;5.32;;;2.60;;
31206;SDS011;17834;52.992;8.856;2024-02-16T01:45:26;6.18;;;2.90;;
31206;SDS011;17834;52.992;8.856;2024-02-16T01:47:52;5.32;;;3.17;;
31206;SDS011;17834;52.992;8.856;2024-02-16T01:50:19;5.10;;;2.90;;
31206;SDS011;17834;52.992;8.856;2024-02-16T01:52:46;5.13;;;3.17;;
31206;SDS011;17834;52.992;8.856;2024-02-16T01:55:12;5.63;;;2.97;;
31206;SDS011;17834;52.992;8.856;2024-02-16T01:57:39;5.80;;;3.08;;
31206;SDS011;17834;52.992;8.856;2024-02-16T02:00:05;4.85;;;2.85;;
31206;SDS011;17834;52.992;8.856;2024-02-16T02:02:33;7.40;;;2.72;;
31206;SDS011;17834;52.992;8.856;2024-02-16T02:04:59;6.40;;;2.92;;
31206;SDS011;17834;52.992;8.856;2024-02-16T02:07:26;5.95;;;3.58;;
31206;SDS011;17834;52.992;8.856;2024-02-16T02:09:52;9.05;;;3.22;;
31206;SDS011;17834;52.992;8.856;2024-02-16T02:12:18;5.88;;;3.25;;
31206;SDS011;17834;52.992;8.856;2024-02-16T02:14:44;4.18;;;2.88;;
31206;SDS011;17834;52.992;8.856;2024-02-16T02:17:11;5.95;;;3.03;;
31206;SDS011;17834;52.992;8.856;2024-02-16T02:19:37;5.88;;;3.63;;
31206;SDS011;17834;52.992;8.856;2024-02-16T02:22:03;8.60;;;3.03;;
31206;SDS011;17834;52.992;8.856;2024-02-16T02:24:29;8.77;;;3.38;;
31206;SDS011;17834;52.992;8.856;2024-02-16T02:26:55;6.20;;;2.95;;
31206;SDS011;17834;52.992;8.856;2024-02-16T02:29:22;6.22;;;2.70;;
31206;SDS011;17834;52.992;8.856;2024-02-16T02:31:48;7.53;;;2.80;;
31206;SDS011;17834;52.992;8.856;2024-02-16T02:34:14;5.85;;;3.22;;
31206;SDS011;17834;52.992;8.856;2024-02-16T02:36:40;6.13;;;2.53;;
31206;SDS011;17834;52.992;8.856;2024-02-16T02:39:06;6.40;;;2.30;;
31206;SDS011;17834;52.992;8.856;2024-02-16T02:41:32;5.22;;;2.33;;
31206;SDS011;17834;52.992;8.856;2024-02-16T02:43:59;9.70;;;3.03;;
31206;SDS011;17834;52.992;8.856;2024-02-16T02:46:25;3.97;;;2.47;;
31206;SDS011;17834;52.992;8.856;2024-02-16T02:48:52;5.60;;;2.70;;
31206;SDS011;17834;52.992;8.856;2024-02-16T02:51:18;5.20;;;2.58;;
31206;SDS011;17834;52.992;8.856;2024-02-16T02:53:44;6.70;;;2.67;;
31206;SDS011;17834;52.992;8.856;2024-02-16T02:56:10;4.50;;;2.05;;
31206;SDS011;17834;52.992;8.856;2024-02-16T02:58:38;4.95;;;2.85;;
31206;SDS011;17834;52.992;8.856;2024-02-16T03:01:04;4.22;;;2.15;;
31206;SDS011;17834;52.992;8.856;2024-02-16T03:03:32;7.60;;;2.17;;
31206;SDS011;17834;52.992;8.856;2024-02-16T03:05:59;3.75;;;2.33;;
31206;SDS011;17834;52.992;8.856;2024-02-16T03:08:26;6.78;;;2.40;;
31206;SDS011;17834;52.992;8.856;2024-02-16T03:10:52;6.50;;;2.30;;
31206;SDS011;17834;52.992;8.856;2024-02-16T03:13:18;4.80;;;2.20;;
31206;SDS011;17834;52.992;8.856;2024-02-16T03:15:44;5.72;;;2.10;;
31206;SDS011;17834;52.992;8.856;2024-02-16T03:18:10;6.05;;;2.20;;
31206;SDS011;17834;52.992;8.856;2024-02-16T03:20:36;4.18;;;1.95;;
31206;SDS011;17834;52.992;8.856;2024-02-16T03:23:02;9.77;;;2.58;;
31206;SDS011;17834;52.992;8.856;2024-02-16T03:25:29;3.92;;;2.55;;
31206;SDS011;17834;52.992;8.856;2024-02-16T03:27:55;4.70;;;2.58;;
31206;SDS011;17834;52.992;8.856;2024-02-16T03:30:21;9.43;;;2.10;;
31206;SDS011;17834;52.992;8.856;2024-02-16T03:32:50;3.95;;;2.28;;
31206;SDS011;17834;52.992;8.856;2024-02-16T03:35:17;4.93;;;2.53;;
31206;SDS011;17834;52.992;8.856;2024-02-16T03:37:44;3.70;;;2.15;;
31206;SDS011;17834;52.992;8.856;2024-02-16T03:40:10;3.42;;;1.95;;
31206;SDS011;17834;52.992;8.856;2024-02-16T03:42:37;7.88;;;2.35;;
31206;SDS011;17834;52.992;8.856;2024-02-16T03:45:03;6.22;;;2.10;;
31206;SDS011;17834;52.992;8.856;2024-02-16T03:47:29;5.03;;;2.40;;
31206;SDS011;17834;52.992;8.856;2024-02-16T03:49:55;5.43;;;2.13;;
31206;SDS011;17834;52.992;8.856;2024-02-16T03:52:21;4.53;;;2.50;;
31206;SDS011;17834;52.992;8.856;2024-02-16T03:54:47;4.97;;;1.98;;
31206;SDS011;17834;52.992;8.856;2024-02-16T03:57:14;3.65;;;2.00;;
31206;SDS011;17834;52.992;8.856;2024-02-16T03:59:42;3.08;;;1.90;;
31206;SDS011;17834;52.992;8.856;2024-02-16T04:02:08;4.20;;;2.20;;
31206;SDS011;17834;52.992;8.856;2024-02-16T04:04:35;6.95;;;2.53;;
31206;SDS011;17834;52.992;8.856;2024-02-16T04:07:01;4.97;;;1.90;;
31206;SDS011;17834;52.992;8.856;2024-02-16T04:09:27;5.68;;;2.20;;
31206;SDS011;17834;52.992;8.856;2024-02-16T04:11:53;4.28;;;2.13;;
31206;SDS011;17834;52.992;8.856;2024-02-16T04:14:19;3.50;;;2.00;;
31206;SDS011;17834;52.992;8.856;2024-02-16T04:16:44;3.60;;;2.22;;
31206;SDS011;17834;52.992;8.856;2024-02-16T04:19:10;3.50;;;2.42;;
31206;SDS011;17834;52.992;8.856;2024-02-16T04:21:36;4.82;;;2.00;;
31206;SDS011;17834;52.992;8.856;2024-02-16T04:24:02;3.72;;;1.92;;
31206;SDS011;17834;52.992;8.856;2024-02-16T04:26:29;4.25;;;2.05;;
31206;SDS011;17834;52.992;8.856;2024-02-16T04:28:54;2.60;;;1.83;;
31206;SDS011;17834;52.992;8.856;2024-02-16T04:31:20;3.03;;;1.65;;
31206;SDS011;17834;52.992;8.856;2024-02-16T04:33:46;4.32;;;2.10;;
31206;SDS011;17834;52.992;8.856;2024-02-16T04:36:12;4.32;;;1.92;;
31206;SDS011;17834;52.992;8.856;2024-02-16T04:38:40;5.47;;;1.80;;
31206;SDS011;17834;52.992;8.856;2024-02-16T04:41:06;8.32;;;2.60;;
31206;SDS011;17834;52.992;8.856;2024-02-16T04:43:33;4.00;;;2.08;;
31206;SDS011;17834;52.992;8.856;2024-02-16T04:45:59;3.47;;;1.92;;
31206;SDS011;17834;52.992;8.856;2024-02-16T04:48:25;4.80;;;2.30;;
31206;SDS011;17834;52.992;8.856;2024-02-16T04:50:51;4.28;;;1.90;;
31206;SDS011;17834;52.992;8.856;2024-02-16T04:53:17;4.05;;;2.00;;
31206;SDS011;17834;52.992;8.856;2024-02-16T04:55:43;5.32;;;2.05;;
31206;SDS011;17834;52.992;8.856;2024-02-16T04:58:09;4.75;;;2.10;;
31206;SDS011;17834;52.992;8.856;2024-02-16T05:00:35;4.70;;;2.13;;
31206;SDS011;17834;52.992;8.856;2024-02-16T05:03:02;3.53;;;2.10;;
31206;SDS011;17834;52.992;8.856;2024-02-16T05:05:28;5.90;;;2.15;;
31206;SDS011;17834;52.992;8.856;2024-02-16T05:07:55;5.03;;;2.22;;
31206;SDS011;17834;52.992;8.856;2024-02-16T05:10:22;3.40;;;1.80;;
31206;SDS011;17834;52.992;8.856;2024-02-16T05:12:48;3.13;;;1.77;;
31206;SDS011;17834;52.992;8.856;2024-02-16T05:15:14;6.30;;;2.33;;
31206;SDS011;17834;52.992;8.856;2024-02-16T05:17:40;3.42;;;1.92;;
31206;SDS011;17834;52.992;8.856;2024-02-16T05:20:12;3.03;;;1.70;;
31206;SDS011;17834;52.992;8.856;2024-02-16T05:22:43;3.72;;;1.80;;
31206;SDS011;17834;52.992;8.856;2024-02-16T05:25:10;3.53;;;1.83;;
31206;SDS011;17834;52.992;8.856;2024-02-16T05:27:36;5.07;;;2.10;;
31206;SDS011;17834;52.992;8.856;2024-02-16T05:30:03;5.00;;;1.73;;
31206;SDS011;17834;52.992;8.856;2024-02-16T05:32:29;3.47;;;1.77;;
31206;SDS011;17834;52.992;8.856;2024-02-16T05:34:55;6.43;;;2.20;;
31206;SDS011;17834;52.992;8.856;2024-02-16T05:37:21;5.80;;;2.25;;
31206;SDS011;17834;52.992;8.856;2024-02-16T05:39:47;3.08;;;1.67;;
31206;SDS011;17834;52.992;8.856;2024-02-16T05:42:22;2.78;;;1.80;;
31206;SDS011;17834;52.992;8.856;2024-02-16T05:44:48;4.22;;;2.17;;
31206;SDS011;17834;52.992;8.856;2024-02-16T05:47:15;3.47;;;1.75;;
31206;SDS011;17834;52.992;8.856;2024-02-16T05:49:41;3.30;;;1.70;;
31206;SDS011;17834;52.992;8.856;2024-02-16T05:52:07;3.72;;;1.92;;
31206;SDS011;17834;52.992;8.856;2024-02-16T05:54:42;3.30;;;1.90;;
31206;SDS011;17834;52.992;8.856;2024-02-16T05:57:08;2.85;;;1.98;;
31206;SDS011;17834;52.992;8.856;2024-02-16T05:59:34;5.97;;;2.17;;
31206;SDS011;17834;52.992;8.856;2024-02-16T06:02:00;2.63;;;1.75;;
31206;SDS011;17834;52.992;8.856;2024-02-16T06:04:26;3.58;;;1.67;;
31206;SDS011;17834;52.992;8.856;2024-02-16T06:06:52;4.13;;;2.28;;
31206;SDS011;17834;52.992;8.856;2024-02-16T06:09:19;5.65;;;2.58;;
31206;SDS011;17834;52.992;8.856;2024-02-16T06:11:45;3.67;;;2.08;;
31206;SDS011;17834;52.992;8.856;2024-02-16T06:14:11;4.38;;;2.10;;
31206;SDS011;17834;52.992;8.856;2024-02-16T06:16:37;3.47;;;2.00;;
31206;SDS011;17834;52.992;8.856;2024-02-16T06:19:03;2.83;;;1.75;;
31206;SDS011;17834;52.992;8.856;2024-02-16T06:21:31;4.18;;;1.90;;
31206;SDS011;17834;52.992;8.856;2024-02-16T06:23:57;7.47;;;2.47;;
31206;SDS011;17834;52.992;8.856;2024-02-16T06:26:23;4.40;;;1.98;;
31206;SDS011;17834;52.992;8.856;2024-02-16T06:28:49;3.90;;;2.33;;
31206;SDS011;17834;52.992;8.856;2024-02-16T06:31:15;4.05;;;2.38;;
31206;SDS011;17834;52.992;8.856;2024-02-16T06:33:41;7.80;;;2.40;;
31206;SDS011;17834;52.992;8.856;2024-02-16T06:36:07;4.78;;;2.40;;
31206;SDS011;17834;52.992;8.856;2024-02-16T06:38:34;9.45;;;2.33;;
31206;SDS011;17834;52.992;8.856;2024-02-16T06:41:00;5.63;;;2.67;;
31206;SDS011;17834;52.992;8.856;2024-02-16T06:43:28;7.85;;;3.40;;
31206;SDS011;17834;52.992;8.856;2024-02-16T06:45:54;8.60;;;2.90;;
31206;SDS011;17834;52.992;8.856;2024-02-16T06:48:22;8.23;;;3.45;;
31206;SDS011;17834;52.992;8.856;2024-02-16T06:50:48;6.18;;;3.33;;
31206;SDS011;17834;52.992;8.856;2024-02-16T06:53:14;7.57;;;3.20;;
31206;SDS011;17834;52.992;8.856;2024-02-16T06:55:40;6.57;;;2.53;;
31206;SDS011;17834;52.992;8.856;2024-02-16T06:58:06;6.53;;;2.60;;
31206;SDS011;17834;52.992;8.856;2024-02-16T07:00:32;4.43;;;2.00;;
31206;SDS011;17834;52.992;8.856;2024-02-16T07:02:58;3.00;;;2.00;;
31206;SDS011;17834;52.992;8.856;2024-02-16T07:05:24;3.65;;;1.63;;
31206;SDS011;17834;52.992;8.856;2024-02-16T07:07:52;3.85;;;1.88;;
31206;SDS011;17834;52.992;8.856;2024-02-16T07:10:18;7.65;;;2.33;;
31206;SDS011;17834;52.992;8.856;2024-02-16T07:12:44;4.28;;;2.05;;
31206;SDS011;17834;52.992;8.856;2024-02-16T07:15:11;6.38;;;2.38;;
31206;SDS011;17834;52.992;8.856;2024-02-16T07:17:37;3.53;;;1.85;;
31206;SDS011;17834;52.992;8.856;2024-02-16T07:20:03;7.85;;;2.30;;
31206;SDS011;17834;52.992;8.856;2024-02-16T07:22:30;4.45;;;2.30;;
31206;SDS011;17834;52.992;8.856;2024-02-16T07:24:57;4.85;;;2.67;;
31206;SDS011;17834;52.992;8.856;2024-02-16T07:27:25;3.75;;;2.30;;
31206;SDS011;17834;52.992;8.856;2024-02-16T07:29:51;3.92;;;2.22;;
31206;SDS011;17834;52.992;8.856;2024-02-16T07:32:17;5.18;;;2.28;;
31206;SDS011;17834;52.992;8.856;2024-02-16T07:34:46;3.13;;;2.10;;
31206;SDS011;17834;52.992;8.856;2024-02-16T07:37:16;4.90;;;2.30;;
31206;SDS011;17834;52.992;8.856;2024-02-16T07:39:42;6.85;;;2.65;;
31206;SDS011;17834;52.992;8.856;2024-02-16T07:42:08;4.18;;;2.25;;
31206;SDS011;17834;52.992;8.856;2024-02-16T07:44:34;4.80;;;2.15;;
31206;SDS011;17834;52.992;8.856;2024-02-16T07:47:01;4.20;;;2.00;;
31206;SDS011;17834;52.992;8.856;2024-02-16T07:49:27;6.63;;;2.70;;
31206;SDS011;17834;52.992;8.856;2024-02-16T07:51:53;4.82;;;2.83;;
31206;SDS011;17834;52.992;8.856;2024-02-16T07:54:19;5.30;;;2.92;;
31206;SDS011;17834;52.992;8.856;2024-02-16T07:56:45;6.47;;;3.03;;
31206;SDS011;17834;52.992;8.856;2024-02-16T07:59:11;8.18;;;3.45;;
31206;SDS011;17834;52.992;8.856;2024-02-16T08:01:37;8.80;;;3.45;;
31206;SDS011;17834;52.992;8.856;2024-02-16T08:04:03;7.25;;;3.45;;
31206;SDS011;17834;52.992;8.856;2024-02-16T08:06:29;7.38;;;3.10;;
31206;SDS011;17834;52.992;8.856;2024-02-16T08:08:55;6.50;;;3.72;;
31206;SDS011;17834;52.992;8.856;2024-02-16T08:11:22;7.50;;;3.30;;
31206;SDS011;17834;52.992;8.856;2024-02-16T08:13:48;5.50;;;3.15;;
31206;SDS011;17834;52.992;8.856;2024-02-16T08:16:14;4.68;;;2.95;;
31206;SDS011;17834;52.992;8.856;2024-02-16T08:18:42;6.53;;;2.72;;
31206;SDS011;17834;52.992;8.856;2024-02-16T08:21:08;5.35;;;2.42;;
31206;SDS011;17834;52.992;8.856;2024-02-16T08:23:35;3.70;;;2.10;;
31206;SDS011;17834;52.992;8.856;2024-02-16T08:26:02;3.50;;;2.15;;
31206;SDS011;17834;52.992;8.856;2024-02-16T08:28:28;5.60;;;2.40;;
31206;SDS011;17834;52.992;8.856;2024-02-16T08:30:54;5.05;;;1.92;;
31206;SDS011;17834;52.992;8.856;2024-02-16T08:33:20;3.92;;;1.83;;
31206;SDS011;17834;52.992;8.856;2024-02-16T08:35:46;3.33;;;1.75;;
31206;SDS011;17834;52.992;8.856;2024-02-16T08:38:12;2.90;;;1.83;;
31206;SDS011;17834;52.992;8.856;2024-02-16T08:40:39;3.75;;;1.88;;
31206;SDS011;17834;52.992;8.856;2024-02-16T08:43:05;7.13;;;1.75;;
31206;SDS011;17834;52.992;8.856;2024-02-16T08:45:34;6.78;;;1.83;;
31206;SDS011;17834;52.992;8.856;2024-02-16T08:48:00;3.78;;;1.85;;
31206;SDS011;17834;52.992;8.856;2024-02-16T08:50:28;3.25;;;1.90;;
31206;SDS011;17834;52.992;8.856;2024-02-16T08:52:55;4.55;;;2.00;;
31206;SDS011;17834;52.992;8.856;2024-02-16T08:55:21;4.85;;;2.17;;
31206;SDS011;17834;52.992;8.856;2024-02-16T08:57:47;5.00;;;1.90;;
31206;SDS011;17834;52.992;8.856;2024-02-16T09:00:13;4.18;;;1.75;;
31206;SDS011;17834;52.992;8.856;2024-02-16T09:02:41;6.53;;;2.10;;
31206;SDS011;17834;52.992;8.856;2024-02-16T09:05:07;7.05;;;2.25;;
31206;SDS011;17834;52.992;8.856;2024-02-16T09:07:34;5.05;;;1.88;;
31206;SDS011;17834;52.992;8.856;2024-02-16T09:10:00;2.38;;;1.15;;
31206;SDS011;17834;52.992;8.856;2024-02-16T09:12:26;3.20;;;1.55;;
31206;SDS011;17834;52.992;8.856;2024-02-16T09:14:52;7.40;;;1.60;;
31206;SDS011;17834;52.992;8.856;2024-02-16T09:17:18;2.47;;;1.52;;
31206;SDS011;17834;52.992;8.856;2024-02-16T09:19:45;2.72;;;1.27;;
31206;SDS011;17834;52.992;8.856;2024-02-16T09:22:11;2.92;;;1.20;;
31206;SDS011;17834;52.992;8.856;2024-02-16T09:24:37;5.55;;;1.45;;
31206;SDS011;17834;52.992;8.856;2024-02-16T09:27:04;3.60;;;1.60;;
31206;SDS011;17834;52.992;8.856;2024-02-16T09:29:30;4.68;;;1.50;;
31206;SDS011;17834;52.992;8.856;2024-02-16T09:31:56;3.22;;;1.60;;
31206;SDS011;17834;52.992;8.856;2024-02-16T09:34:22;3.03;;;1.50;;
31206;SDS011;17834;52.992;8.856;2024-02-16T09:36:48;2.22;;;1.38;;
31206;SDS011;17834;52.992;8.856;2024-02-16T09:39:14;3.85;;;1.70;;
31206;SDS011;17834;52.992;8.856;2024-02-16T09:41:41;4.30;;;1.58;;
31206;SDS011;17834;52.992;8.856;2024-02-16T09:44:08;3.83;;;1.65;;
31206;SDS011;17834;52.992;8.856;2024-02-16T09:46:35;3.17;;;1.70;;
31206;SDS011;17834;52.992;8.856;2024-02-16T09:49:01;3.25;;;1.40;;
31206;SDS011;17834;52.992;8.856;2024-02-16T09:51:28;3.85;;;1.33;;
31206;SDS011;17834;52.992;8.856;2024-02-16T09:53:54;6.70;;;1.48;;
31206;SDS011;17834;52.992;8.856;2024-02-16T09:56:20;4.45;;;1.73;;
31206;SDS011;17834;52.992;8.856;2024-02-16T09:58:46;3.05;;;1.50;;
31206;SDS011;17834;52.992;8.856;2024-02-16T10:01:19;2.90;;;1.55;;
31206;SDS011;17834;52.992;8.856;2024-02-16T10:03:48;3.20;;;1.38;;
31206;SDS011;17834;52.992;8.856;2024-02-16T10:06:14;16.95;;;2.13;;
31206;SDS011;17834;52.992;8.856;2024-02-16T10:08:50;2.60;;;1.30;;
31206;SDS011;17834;52.992;8.856;2024-02-16T10:11:17;6.13;;;2.20;;
31206;SDS011;17834;52.992;8.856;2024-02-16T10:13:59;3.85;;;1.40;;
31206;SDS011;17834;52.992;8.856;2024-02-16T10:16:26;3.42;;;2.10;;
31206;SDS011;17834;52.992;8.856;2024-02-16T10:18:54;5.72;;;1.60;;
31206;SDS011;17834;52.992;8.856;2024-02-16T10:21:26;3.85;;;1.50;;
31206;SDS011;17834;52.992;8.856;2024-02-16T10:24:11;4.10;;;1.70;;
31206;SDS011;17834;52.992;8.856;2024-02-16T10:26:39;3.83;;;2.05;;
31206;SDS011;17834;52.992;8.856;2024-02-16T10:29:05;4.20;;;1.67;;
31206;SDS011;17834;52.992;8.856;2024-02-16T10:31:33;3.30;;;1.55;;
31206;SDS011;17834;52.992;8.856;2024-02-16T10:34:00;5.72;;;1.88;;
31206;SDS011;17834;52.992;8.856;2024-02-16T10:36:30;3.38;;;1.73;;
31206;SDS011;17834;52.992;8.856;2024-02-16T10:38:57;5.85;;;2.17;;
31206;SDS011;17834;52.992;8.856;2024-02-16T10:41:25;3.20;;;1.63;;
31206;SDS011;17834;52.992;8.856;2024-02-16T10:43:53;6.57;;;1.80;;
31206;SDS011;17834;52.992;8.856;2024-02-16T10:46:20;6.00;;;2.05;;
31206;SDS011;17834;52.992;8.856;2024-02-16T10:48:46;5.68;;;2.13;;
31206;SDS011;17834;52.992;8.856;2024-02-16T10:51:12;4.63;;;1.80;;
31206;SDS011;17834;52.992;8.856;2024-02-16T10:53:39;3.95;;;1.55;;
31206;SDS011;17834;52.992;8.856;2024-02-16T10:56:06;8.57;;;2.17;;
31206;SDS011;17834;52.992;8.856;2024-02-16T10:58:33;5.53;;;2.28;;
31206;SDS011;17834;52.992;8.856;2024-02-16T11:01:07;4.80;;;1.90;;
31206;SDS011;17834;52.992;8.856;2024-02-16T11:03:34;5.30;;;1.95;;
31206;SDS011;17834;52.992;8.856;2024-02-16T11:06:11;6.88;;;2.20;;
31206;SDS011;17834;52.992;8.856;2024-02-16T11:08:37;4.78;;;1.88;;
31206;SDS011;17834;52.992;8.856;2024-02-16T11:11:03;6.00;;;1.92;;
31206;SDS011;17834;52.992;8.856;2024-02-16T11:13:33;4.80;;;2.13;;
31206;SDS011;17834;52.992;8.856;2024-02-16T11:16:03;6.40;;;1.80;;
31206;SDS011;17834;52.992;8.856;2024-02-16T11:18:30;4.00;;;2.00;;
31206;SDS011;17834;52.992;8.856;2024-02-16T11:21:00;5.97;;;2.35;;
31206;SDS011;17834;52.992;8.856;2024-02-16T11:23:27;6.05;;;2.40;;
31206;SDS011;17834;52.992;8.856;2024-02-16T11:25:54;7.10;;;2.17;;
31206;SDS011;17834;52.992;8.856;2024-02-16T11:28:20;5.72;;;2.78;;
31206;SDS011;17834;52.992;8.856;2024-02-16T11:30:46;5.13;;;2.13;;
31206;SDS011;17834;52.992;8.856;2024-02-16T11:33:12;5.90;;;2.50;;
31206;SDS011;17834;52.992;8.856;2024-02-16T11:35:39;3.88;;;2.03;;
31206;SDS011;17834;52.992;8.856;2024-02-16T11:38:05;5.90;;;2.17;;
31206;SDS011;17834;52.992;8.856;2024-02-16T11:40:31;5.30;;;2.83;;
31206;SDS011;17834;52.992;8.856;2024-02-16T11:42:57;5.43;;;2.47;;
31206;SDS011;17834;52.992;8.856;2024-02-16T11:45:23;9.65;;;3.00;;
31206;SDS011;17834;52.992;8.856;2024-02-16T11:47:50;5.68;;;1.83;;
31206;SDS011;17834;52.992;8.856;2024-02-16T11:50:17;3.78;;;2.35;;
31206;SDS011;17834;52.992;8.856;2024-02-16T11:52:44;6.05;;;3.03;;
31206;SDS011;17834;52.992;8.856;2024-02-16T11:55:11;5.22;;;2.35;;
31206;SDS011;17834;52.992;8.856;2024-02-16T11:57:39;6.90;;;2.55;;
31206;SDS011;17834;52.992;8.856;2024-02-16T12:00:06;6.68;;;2.92;;
31206;SDS011;17834;52.992;8.856;2024-02-16T12:02:36;8.88;;;3.30;;
31206;SDS011;17834;52.992;8.856;2024-02-16T12:05:02;7.72;;;2.78;;
31206;SDS011;17834;52.992;8.856;2024-02-16T12:07:29;8.10;;;2.70;;
31206;SDS011;17834;52.992;8.856;2024-02-16T12:09:58;6.03;;;2.78;;
31206;SDS011;17834;52.992;8.856;2024-02-16T12:12:25;5.72;;;2.42;;
31206;SDS011;17834;52.992;8.856;2024-02-16T12:14:52;8.05;;;3.13;;
31206;SDS011;17834;52.992;8.856;2024-02-16T12:17:18;6.70;;;2.60;;
31206;SDS011;17834;52.992;8.856;2024-02-16T12:19:44;5.57;;;2.97;;
31206;SDS011;17834;52.992;8.856;2024-02-16T12:22:11;5.47;;;3.10;;
31206;SDS011;17834;52.992;8.856;2024-02-16T12:24:41;7.55;;;3.20;;
31206;SDS011;17834;52.992;8.856;2024-02-16T12:27:08;5.88;;;2.95;;
31206;SDS011;17834;52.992;8.856;2024-02-16T12:29:34;5.72;;;2.47;;
31206;SDS011;17834;52.992;8.856;2024-02-16T12:31:59;5.57;;;2.85;;
31206;SDS011;17834;52.992;8.856;2024-02-16T12:34:25;6.20;;;3.17;;
31206;SDS011;17834;52.992;8.856;2024-02-16T12:36:53;6.05;;;3.47;;
31206;SDS011;17834;52.992;8.856;2024-02-16T12:39:19;4.68;;;2.40;;
31206;SDS011;17834;52.992;8.856;2024-02-16T12:41:46;9.35;;;2.95;;
31206;SDS011;17834;52.992;8.856;2024-02-16T12:44:13;8.50;;;3.22;;
31206;SDS011;17834;52.992;8.856;2024-02-16T12:46:39;6.70;;;2.90;;
31206;SDS011;17834;52.992;8.856;2024-02-16T12:49:06;6.82;;;2.83;;
31206;SDS011;17834;52.992;8.856;2024-02-16T12:51:32;7.57;;;2.60;;
31206;SDS011;17834;52.992;8.856;2024-02-16T12:53:58;7.45;;;2.33;;
31206;SDS011;17834;52.992;8.856;2024-02-16T12:56:25;6.18;;;2.90;;
31206;SDS011;17834;52.992;8.856;2024-02-16T12:58:51;11.63;;;4.82;;
31206;SDS011;17834;52.992;8.856;2024-02-16T13:01:17;12.95;;;3.22;;
31206;SDS011;17834;52.992;8.856;2024-02-16T13:03:43;5.60;;;2.97;;
31206;SDS011;17834;52.992;8.856;2024-02-16T13:06:09;5.20;;;2.47;;
31206;SDS011;17834;52.992;8.856;2024-02-16T13:08:36;6.85;;;3.03;;
31206;SDS011;17834;52.992;8.856;2024-02-16T13:11:02;4.45;;;2.72;;
31206;SDS011;17834;52.992;8.856;2024-02-16T13:13:29;6.25;;;2.92;;
31206;SDS011;17834;52.992;8.856;2024-02-16T13:15:55;5.68;;;2.80;;
31206;SDS011;17834;52.992;8.856;2024-02-16T13:18:22;9.45;;;3.22;;
31206;SDS011;17834;52.992;8.856;2024-02-16T13:20:48;6.93;;;3.10;;
31206;SDS011;17834;52.992;8.856;2024-02-16T13:23:14;5.22;;;2.78;;
31206;SDS011;17834;52.992;8.856;2024-02-16T13:25:40;9.07;;;3.13;;
31206;SDS011;17834;52.992;8.856;2024-02-16T13:28:06;6.32;;;2.63;;
31206;SDS011;17834;52.992;8.856;2024-02-16T13:30:32;6.07;;;3.22;;
31206;SDS011;17834;52.992;8.856;2024-02-16T13:32:59;8.45;;;3.28;;
31206;SDS011;17834;52.992;8.856;2024-02-16T13:35:25;6.57;;;3.17;;
31206;SDS011;17834;52.992;8.856;2024-02-16T13:37:51;6.35;;;2.97;;
31206;SDS011;17834;52.992;8.856;2024-02-16T13:40:17;6.63;;;2.90;;
31206;SDS011;17834;52.992;8.856;2024-02-16T13:42:43;6.38;;;3.13;;
31206;SDS011;17834;52.992;8.856;2024-02-16T13:45:10;6.53;;;2.70;;
31206;SDS011;17834;52.992;8.856;2024-02-16T13:47:36;7.07;;;3.17;;
31206;SDS011;17834;52.992;8.856;2024-02-16T13:50:08;7.88;;;3.30;;
31206;SDS011;17834;52.992;8.856;2024-02-16T13:52:34;6.93;;;3.47;;
31206;SDS011;17834;52.992;8.856;2024-02-16T13:55:00;8.93;;;3.53;;
31206;SDS011;17834;52.992;8.856;2024-02-16T13:57:26;6.75;;;3.05;;
31206;SDS011;17834;52.992;8.856;2024-02-16T13:59:52;7.40;;;3.53;;
31206;SDS011;17834;52.992;8.856;2024-02-16T14:02:18;7.55;;;3.70;;
31206;SDS011;17834;52.992;8.856;2024-02-16T14:04:44;6.88;;;4.00;;
31206;SDS011;17834;52.992;8.856;2024-02-16T14:07:11;7.82;;;4.10;;
31206;SDS011;17834;52.992;8.856;2024-02-16T14:09:37;9.02;;;3.70;;
31206;SDS011;17834;52.992;8.856;2024-02-16T14:12:03;9.60;;;4.55;;
31206;SDS011;17834;52.992;8.856;2024-02-16T14:14:29;9.55;;;4.55;;
31206;SDS011;17834;52.992;8.856;2024-02-16T14:16:55;7.53;;;4.35;;
31206;SDS011;17834;52.992;8.856;2024-02-16T14:19:22;7.97;;;4.80;;
31206;SDS011;17834;52.992;8.856;2024-02-16T14:21:47;7.85;;;4.07;;
31206;SDS011;17834;52.992;8.856;2024-02-16T14:24:13;12.05;;;4.15;;
31206;SDS011;17834;52.992;8.856;2024-02-16T14:26:41;8.80;;;5.25;;
31206;SDS011;17834;52.992;8.856;2024-02-16T14:29:07;10.05;;;5.05;;
31206;SDS011;17834;52.992;8.856;2024-02-16T14:31:33;9.93;;;4.70;;
31206;SDS011;17834;52.992;8.856;2024-02-16T14:34:00;8.75;;;4.85;;
31206;SDS011;17834;52.992;8.856;2024-02-16T14:36:26;9.85;;;5.00;;
31206;SDS011;17834;52.992;8.856;2024-02-16T14:38:52;8.90;;;5.13;;
31206;SDS011;17834;52.992;8.856;2024-02-16T14:41:18;11.90;;;5.30;;
31206;SDS011;17834;52.992;8.856;2024-02-16T14:43:44;9.32;;;5.30;;